Time;durP1;ratioP1;P1;durP2;ratioP2;P2;SDS_P1;SDS_P2;PMS_P1;PMS_P2;Temp;Humidity;BMP_temperature;BMP_pressure;BME280_temperature;BME280_humidity;BME280_pressure;Samples;Min_cycle;Max_cycle;Signal;HPM_P1;HPM_P2
2023/10/31 00:00:48;;;;;;;3.00;1.10;;;;;;;10.24;100.00;99306.72;5095445;28;20044;-46
2023/10/31 00:03:16;;;;;;;2.63;0.98;;;;;;;10.23;100.00;99315.56;5095807;28;20043;-48
2023/10/31 00:05:45;;;;;;;3.58;1.00;;;;;;;10.13;100.00;99314.72;5095912;28;20068;-48
2023/10/31 00:08:13;;;;;;;3.05;1.30;;;;;;;10.13;100.00;99326.06;5096005;28;20119;-50
2023/10/31 00:10:44;;;;;;;2.47;0.80;;;;;;;9.88;100.00;99329.97;5095756;28;20043;-48
2023/10/31 00:13:12;;;;;;;4.28;0.80;;;;;;;9.74;100.00;99341.66;5096020;28;20047;-48
2023/10/31 00:15:42;;;;;;;3.72;0.90;;;;;;;9.79;100.00;99338.66;5095643;28;20094;-49
2023/10/31 00:18:11;;;;;;;5.25;1.42;;;;;;;9.77;100.00;99351.06;5094431;28;20159;-48
2023/10/31 00:20:39;;;;;;;4.68;1.27;;;;;;;9.73;100.00;99355.75;5093879;28;20044;-48
2023/10/31 00:23:08;;;;;;;3.80;1.17;;;;;;;9.67;100.00;99358.06;5092046;28;20467;-47
2023/10/31 00:25:36;;;;;;;4.25;1.08;;;;;;;9.69;100.00;99369.28;5093481;28;20052;-45
2023/10/31 00:28:04;;;;;;;5.05;1.35;;;;;;;9.68;100.00;99372.84;5095469;28;20044;-50
2023/10/31 00:30:35;;;;;;;5.65;1.58;;;;;;;9.70;100.00;99366.50;5094287;28;20083;-45
2023/10/31 00:33:07;;;;;;;3.03;1.45;;;;;;;9.63;100.00;99374.06;5095418;28;20176;-56
2023/10/31 00:35:36;;;;;;;3.35;1.48;;;;;;;9.65;100.00;99379.19;5095376;28;20076;-56
2023/10/31 00:41:27;;;;;;;5.07;1.42;;;;;;;9.65;100.00;99389.69;5095044;28;20600;-56
2023/10/31 00:43:55;;;;;;;5.47;1.73;;;;;;;9.64;100.00;99394.13;5095086;28;20044;-55
2023/10/31 00:46:23;;;;;;;3.97;1.30;;;;;;;9.64;100.00;99393.31;5095362;28;20101;-56
2023/10/31 00:48:53;;;;;;;4.28;1.33;;;;;;;9.64;100.00;99399.38;5095383;28;20052;-57
2023/10/31 00:51:22;;;;;;;2.50;1.20;;;;;;;9.71;100.00;99404.13;5095626;28;20131;-56
2023/10/31 00:53:50;;;;;;;4.28;1.65;;;;;;;9.62;100.00;99410.97;5095266;28;20052;-57
2023/10/31 00:56:18;;;;;;;3.53;1.20;;;;;;;9.61;100.00;99411.91;5095444;28;20071;-56
2023/10/31 00:58:46;;;;;;;3.50;1.25;;;;;;;9.55;100.00;99420.31;5095084;28;20530;-56
2023/10/31 01:01:15;;;;;;;3.50;1.35;;;;;;;9.51;100.00;99426.78;5095459;28;20056;-55
2023/10/31 01:03:43;;;;;;;4.82;1.38;;;;;;;9.48;100.00;99426.06;5093774;28;20044;-56
2023/10/31 01:06:13;;;;;;;6.22;1.83;;;;;;;9.48;100.00;99435.75;5095022;28;20054;-54
2023/10/31 01:08:44;;;;;;;3.97;1.13;;;;;;;9.55;100.00;99442.13;5093690;28;20046;-56
2023/10/31 01:11:12;;;;;;;6.43;2.00;;;;;;;9.52;100.00;99446.81;5094011;28;20032;-54
2023/10/31 01:13:40;;;;;;;5.50;2.05;;;;;;;9.48;100.00;99443.63;5094552;28;20130;-46
2023/10/31 01:16:08;;;;;;;9.02;2.60;;;;;;;9.51;100.00;99451.22;5094804;28;20032;-46
2023/10/31 01:18:37;;;;;;;7.15;2.45;;;;;;;9.50;100.00;99452.19;5094525;28;20055;-49
2023/10/31 01:21:06;;;;;;;5.68;2.53;;;;;;;9.47;100.00;99457.69;5094550;28;20533;-46
2023/10/31 01:23:36;;;;;;;8.30;2.75;;;;;;;9.48;100.00;99467.22;5110065;28;20089;-47
2023/10/31 01:26:04;;;;;;;9.85;3.60;;;;;;;9.54;100.00;99471.97;5094413;28;20143;-47
2023/10/31 01:28:32;;;;;;;10.35;4.50;;;;;;;9.52;100.00;99479.13;5094426;28;20399;-45
2023/10/31 01:31:01;;;;;;;14.60;5.90;;;;;;;9.48;100.00;99481.16;5093188;28;20056;-47
2023/10/31 01:33:30;;;;;;;15.05;7.47;;;;;;;9.48;100.00;99472.47;5094176;28;20051;-48
2023/10/31 01:35:58;;;;;;;16.10;8.02;;;;;;;9.46;100.00;99488.34;5094256;28;20036;-46
2023/10/31 01:38:27;;;;;;;13.80;8.30;;;;;;;9.48;100.00;99490.84;5094154;28;20043;-47
2023/10/31 01:40:56;;;;;;;15.70;9.30;;;;;;;9.47;100.00;99490.03;5094045;28;20055;-47
2023/10/31 01:43:31;;;;;;;15.73;8.48;;;;;;;9.51;100.00;99493.22;5094199;28;20097;-46
2023/10/31 01:46:00;;;;;;;16.63;9.18;;;;;;;9.55;100.00;99499.06;5094070;28;20036;-47
2023/10/31 01:48:31;;;;;;;16.65;9.32;;;;;;;9.48;100.00;99501.34;5093941;28;20040;-48
2023/10/31 01:51:04;;;;;;;15.43;9.50;;;;;;;9.49;100.00;99505.66;5094120;28;20048;-47
2023/10/31 01:53:34;;;;;;;15.52;9.38;;;;;;;9.51;100.00;99503.72;5093579;28;20051;-46
2023/10/31 01:56:07;;;;;;;15.73;9.20;;;;;;;9.51;100.00;99505.50;5093817;28;20438;-45
2023/10/31 01:58:38;;;;;;;14.98;9.13;;;;;;;9.52;100.00;99510.63;5093768;28;20052;-47
2023/10/31 02:01:07;;;;;;;16.85;9.60;;;;;;;9.52;100.00;99509.81;5094053;28;20407;-47
2023/10/31 02:03:35;;;;;;;18.58;10.30;;;;;;;9.52;100.00;99510.63;5093591;28;20040;-47
2023/10/31 02:06:05;;;;;;;14.52;9.18;;;;;;;9.53;100.00;99516.69;5093596;28;20563;-47
2023/10/31 02:08:33;;;;;;;18.15;10.50;;;;;;;9.53;100.00;99512.31;5093336;28;20515;-48
2023/10/31 02:11:09;;;;;;;17.77;12.00;;;;;;;9.55;100.00;99514.81;5091909;28;20040;-47
2023/10/31 02:13:38;;;;;;;20.98;12.25;;;;;;;9.55;100.00;99515.63;5093071;28;20044;-49
2023/10/31 02:16:07;;;;;;;19.38;12.85;;;;;;;9.60;100.00;99520.50;5093404;28;20048;-48
2023/10/31 02:18:36;;;;;;;19.38;13.00;;;;;;;9.58;100.00;99512.75;5093259;28;20552;-48
2023/10/31 02:21:07;;;;;;;19.75;12.88;;;;;;;9.58;100.00;99518.00;5093406;28;20059;-48
2023/10/31 02:23:36;;;;;;;20.77;12.90;;;;;;;9.61;100.00;99519.53;5093271;28;20042;-50
2023/10/31 02:26:05;;;;;;;21.67;13.27;;;;;;;9.66;100.00;99524.44;5093307;28;20075;-49
2023/10/31 02:28:33;;;;;;;18.17;11.38;;;;;;;9.61;100.00;99519.53;5093143;28;20047;-47
2023/10/31 02:31:01;;;;;;;21.92;12.35;;;;;;;9.61;100.00;99523.00;5092853;28;20067;-46
2023/10/31 02:33:30;;;;;;;18.00;11.48;;;;;;;9.62;100.00;99516.78;5093263;28;20143;-49
2023/10/31 02:35:58;;;;;;;16.92;9.98;;;;;;;9.61;100.00;99519.53;5093118;28;20044;-47
2023/10/31 02:38:28;;;;;;;16.55;9.57;;;;;;;9.59;100.00;99516.22;5093011;28;20110;-48
2023/10/31 02:41:00;;;;;;;14.73;8.98;;;;;;;9.57;100.00;99516.34;5092972;28;20048;-47
2023/10/31 02:43:28;;;;;;;18.00;9.70;;;;;;;9.58;100.00;99518.00;5092857;28;20040;-48
2023/10/31 02:45:56;;;;;;;13.52;9.02;;;;;;;9.57;100.00;99523.38;5092804;28;20055;-54
2023/10/31 02:48:25;;;;;;;13.93;8.70;;;;;;;9.61;100.00;99525.63;5093168;28;20544;-56
2023/10/31 02:50:53;;;;;;;17.35;10.18;;;;;;;9.63;100.00;99528.13;5092802;28;20059;-55
2023/10/31 02:53:21;;;;;;;19.23;10.48;;;;;;;9.59;100.00;99522.28;5092684;28;20514;-45
2023/10/31 02:55:49;;;;;;;17.17;11.25;;;;;;;9.60;100.00;99518.72;5092630;28;20051;-46
2023/10/31 02:58:20;;;;;;;19.05;10.98;;;;;;;9.60;100.00;99526.59;5092397;28;20032;-46
2023/10/31 03:00:48;;;;;;;18.75;11.15;;;;;;;9.64;100.00;99520.13;5092733;28;20176;-47
2023/10/31 03:03:17;;;;;;;18.52;11.63;;;;;;;9.66;100.00;99516.53;5092624;28;20612;-47
2023/10/31 03:05:45;;;;;;;18.52;11.48;;;;;;;9.62;100.00;99519.41;5090651;28;20052;-55
2023/10/31 03:08:13;;;;;;;20.30;11.23;;;;;;;9.63;100.00;99518.44;5089549;28;20101;-57
2023/10/31 03:10:42;;;;;;;20.25;13.15;;;;;;;9.63;100.00;99517.63;5091095;28;20100;-56
2023/10/31 03:13:10;;;;;;;18.55;12.07;;;;;;;9.63;100.00;99518.44;5092512;28;20063;-56
2023/10/31 03:15:40;;;;;;;18.48;12.02;;;;;;;9.61;100.00;99516.91;5092284;28;20052;-55
2023/10/31 03:18:08;;;;;;;16.67;11.30;;;;;;;9.62;100.00;99518.59;5091013;28;20052;-57
2023/10/31 03:20:36;;;;;;;16.77;10.82;;;;;;;9.62;100.00;99522.03;5088742;28;20040;-57
2023/10/31 03:23:04;;;;;;;18.42;11.55;;;;;;;9.64;100.00;99524.56;5091515;28;20048;-56
2023/10/31 03:25:35;;;;;;;19.20;11.82;;;;;;;9.59;100.00;99518.84;5092296;28;20551;-56
2023/10/31 03:28:03;;;;;;;17.33;11.30;;;;;;;9.58;100.00;99533.75;5091111;28;20685;-56
2023/10/31 03:30:33;;;;;;;19.42;12.52;;;;;;;9.60;100.00;99526.59;5092339;28;20055;-56
2023/10/31 03:33:02;;;;;;;19.25;12.88;;;;;;;9.57;100.00;99526.84;5092166;28;20502;-56
2023/10/31 03:35:30;;;;;;;19.92;13.45;;;;;;;9.58;100.00;99532.91;5091763;28;20048;-56
2023/10/31 03:37:59;;;;;;;21.40;13.57;;;;;;;9.59;100.00;99543.28;5092109;28;20043;-56
2023/10/31 03:40:27;;;;;;;20.65;13.38;;;;;;;9.58;100.00;99541.59;5092039;28;20052;-57
2023/10/31 03:42:55;;;;;;;21.52;13.93;;;;;;;9.61;100.00;99544.00;5090863;28;20105;-56
2023/10/31 03:45:23;;;;;;;23.38;13.77;;;;;;;9.60;100.00;99550.22;5088793;28;20055;-57
2023/10/31 03:47:50;;;;;;;20.60;13.63;;;;;;;9.60;100.00;99546.75;5090742;28;20490;-56
2023/10/31 03:50:20;;;;;;;18.35;13.07;;;;;;;9.60;100.00;99549.38;5091955;28;20044;-56
2023/10/31 03:52:48;;;;;;;19.10;13.23;;;;;;;9.58;100.00;99548.66;5091979;28;20127;-56
2023/10/31 03:55:16;;;;;;;20.27;13.45;;;;;;;9.60;100.00;99559.88;5090612;28;20412;-56
2023/10/31 03:57:44;;;;;;;19.90;13.30;;;;;;;9.61;100.00;99566.78;5090377;28;20044;-57
2023/10/31 04:00:14;;;;;;;17.92;12.70;;;;;;;9.60;100.00;99568.59;5088952;28;20063;-57
2023/10/31 04:02:42;;;;;;;19.98;12.60;;;;;;;9.62;100.00;99574.53;5088081;28;20055;-56
2023/10/31 04:05:10;;;;;;;20.10;12.85;;;;;;;9.63;100.00;99570.94;5090224;28;20048;-57
2023/10/31 04:07:40;;;;;;;19.80;12.77;;;;;;;9.66;100.00;99585.63;5091592;28;20048;-56
2023/10/31 04:10:09;;;;;;;19.55;12.00;;;;;;;9.65;100.00;99583.94;5091762;28;20055;-56
2023/10/31 04:12:37;;;;;;;20.02;11.35;;;;;;;9.61;100.00;99586.00;5092013;28;20056;-56
2023/10/31 04:15:06;;;;;;;14.05;10.15;;;;;;;9.64;100.00;99588.38;5091863;28;20051;-54
2023/10/31 04:17:34;;;;;;;15.05;10.45;;;;;;;9.60;100.00;99594.84;5091820;28;20399;-56
2023/10/31 04:20:06;;;;;;;13.82;9.43;;;;;;;9.56;100.00;99597.84;5092050;28;20039;-55
2023/10/31 04:22:34;;;;;;;13.20;8.98;;;;;;;9.54;100.00;99597.94;5091618;28;20109;-57
2023/10/31 04:25:04;;;;;;;12.13;8.35;;;;;;;9.53;100.00;99611.19;5091668;28;20381;-57
2023/10/31 04:27:32;;;;;;;16.15;8.25;;;;;;;9.54;100.00;99605.00;5091914;28;20498;-57
2023/10/31 04:30:03;;;;;;;13.00;7.90;;;;;;;9.52;100.00;99614.78;5091790;28;20040;-57
2023/10/31 04:32:32;;;;;;;11.45;7.10;;;;;;;9.48;100.00;99614.19;5091345;28;20127;-49
2023/10/31 04:35:00;;;;;;;12.95;7.30;;;;;;;9.45;100.00;99619.69;5091433;28;20040;-48
2023/10/31 04:37:28;;;;;;;11.38;6.10;;;;;;;9.48;100.00;99622.88;5091812;28;20964;-48
2023/10/31 04:39:59;;;;;;;13.50;6.45;;;;;;;9.46;100.00;99623.97;5091507;28;20036;-49
2023/10/31 04:42:29;;;;;;;10.88;5.65;;;;;;;9.46;100.00;99634.47;5090804;28;20511;-48
2023/10/31 04:44:59;;;;;;;12.20;6.20;;;;;;;9.43;100.00;99638.16;5087840;28;20051;-49
2023/10/31 04:47:27;;;;;;;11.02;5.97;;;;;;;9.41;100.00;99640.09;5091007;28;20082;-48
2023/10/31 04:49:55;;;;;;;9.70;4.88;;;;;;;9.41;100.00;99645.34;5095233;28;20079;-47
2023/10/31 04:52:25;;;;;;;12.25;5.57;;;;;;;9.41;100.00;99655.84;5095078;28;20079;-47
2023/10/31 04:54:58;;;;;;;9.13;5.07;;;;;;;9.41;100.00;99655.00;5095012;28;20044;-50
2023/10/31 04:57:26;;;;;;;;;;;;;;;9.41;100.00;99649.75;5095662;28;20048;-48
2023/10/31 04:59:58;;;;;;;12.73;5.25;;;;;;;9.43;100.00;99659.16;5094804;28;20363;-46
2023/10/31 05:02:26;;;;;;;11.63;5.95;;;;;;;9.43;100.00;99664.41;5095002;28;20126;-47
2023/10/31 05:04:54;;;;;;;11.43;5.90;;;;;;;9.44;100.00;99670.50;5094867;28;20048;-56
2023/10/31 05:07:22;;;;;;;10.43;6.40;;;;;;;9.45;100.00;99674.81;5094535;28;20119;-57
2023/10/31 05:09:51;;;;;;;11.20;6.32;;;;;;;9.42;100.00;99673.25;5089496;28;20056;-56
2023/10/31 05:12:19;;;;;;;11.02;6.65;;;;;;;9.43;100.00;99679.31;5092874;28;20502;-55
2023/10/31 05:14:47;;;;;;;13.25;7.15;;;;;;;9.43;100.00;99682.78;5094841;28;20048;-56
2023/10/31 05:17:16;;;;;;;11.68;7.15;;;;;;;9.43;100.00;99685.41;5094767;28;20050;-56
2023/10/31 05:19:45;;;;;;;13.90;7.60;;;;;;;9.44;100.00;99687.06;5094682;28;20044;-57
2023/10/31 05:22:13;;;;;;;12.50;7.55;;;;;;;9.46;100.00;99684.31;5094868;28;20479;-56
2023/10/31 05:24:41;;;;;;;14.63;7.68;;;;;;;9.46;100.00;99689.56;5093148;28;20050;-56
2023/10/31 05:27:10;;;;;;;13.60;8.48;;;;;;;9.47;100.00;99688.63;5094629;28;20040;-55
2023/10/31 05:29:39;;;;;;;14.40;8.48;;;;;;;9.48;100.00;99690.31;5094692;28;20109;-56
2023/10/31 05:32:07;;;;;;;14.63;8.93;;;;;;;9.45;100.00;99687.94;5094558;28;20467;-56
2023/10/31 05:34:37;;;;;;;14.02;9.43;;;;;;;9.45;100.00;99687.94;5090699;28;20051;-56
2023/10/31 05:37:06;;;;;;;15.27;9.43;;;;;;;9.46;100.00;99693.06;5092165;28;20101;-56
2023/10/31 05:39:36;;;;;;;14.93;8.93;;;;;;;9.43;100.00;99697.69;5092755;28;20056;-47
2023/10/31 05:42:05;;;;;;;16.13;9.18;;;;;;;9.42;100.00;99704.75;5093886;28;20059;-46
2023/10/31 05:44:33;;;;;;;13.32;8.95;;;;;;;9.43;100.00;99706.41;5094093;28;20041;-47
2023/10/31 05:47:02;;;;;;;12.93;8.50;;;;;;;9.41;100.00;99707.50;5093980;28;20054;-56
2023/10/31 05:49:30;;;;;;;15.27;9.43;;;;;;;9.40;100.00;99711.88;5094335;28;20063;-56
2023/10/31 05:51:59;;;;;;;14.50;9.13;;;;;;;9.39;100.00;99712.84;5093745;28;20134;-57
2023/10/31 05:54:27;;;;;;;12.02;8.32;;;;;;;9.35;100.00;99721.91;5093708;28;20043;-57
2023/10/31 05:56:56;;;;;;;12.35;8.15;;;;;;;9.36;100.00;99722.75;5092214;28;20139;-56
2023/10/31 05:59:25;;;;;;;13.27;7.82;;;;;;;9.37;100.00;99725.25;5093782;28;20047;-56
2023/10/31 06:01:53;;;;;;;10.88;6.85;;;;;;;9.33;100.00;99725.63;5093917;28;20072;-56
2023/10/31 06:04:22;;;;;;;12.15;6.43;;;;;;;9.31;100.00;99728.34;5092643;28;20443;-56
2023/10/31 06:06:50;;;;;;;10.55;5.40;;;;;;;9.33;100.00;99725.63;5090712;28;20118;-56
2023/10/31 06:09:20;;;;;;;10.57;5.20;;;;;;;9.32;100.00;99731.81;5092563;28;20044;-57
2023/10/31 06:11:48;;;;;;;8.30;4.85;;;;;;;9.27;100.00;99740.03;5093631;28;20044;-56
2023/10/31 06:14:17;;;;;;;9.38;4.40;;;;;;;9.26;100.00;99751.50;5093451;28;20052;-56
2023/10/31 06:16:45;;;;;;;7.57;3.80;;;;;;;9.24;100.00;99756.88;5092339;28;20047;-56
2023/10/31 06:19:13;;;;;;;7.82;3.47;;;;;;;9.21;100.00;99759.72;5093654;28;20043;-56
2023/10/31 06:21:44;;;;;;;9.25;3.85;;;;;;;9.19;100.00;99764.25;5092366;28;20052;-56
2023/10/31 06:24:14;;;;;;;8.82;4.03;;;;;;;9.20;100.00;99762.47;5093675;28;20043;-57
2023/10/31 06:26:44;;;;;;;7.65;3.72;;;;;;;9.14;100.00;99766.38;5092975;28;20055;-56
2023/10/31 06:29:12;;;;;;;7.05;3.70;;;;;;;9.16;100.00;99763.63;5090563;28;20048;-56
2023/10/31 06:32:01;;;;;;;8.68;3.17;;;;;;;9.10;100.00;99770.19;5091806;28;20055;-55
2023/10/31 06:34:29;;;;;;;6.18;2.85;;;;;;;9.04;100.00;99774.13;5092963;28;20055;-55
2023/10/31 06:36:57;;;;;;;6.80;3.00;;;;;;;9.02;100.00;99775.19;5092824;28;20040;-56
2023/10/31 06:39:25;;;;;;;6.10;2.92;;;;;;;9.00;100.00;99777.06;5091726;28;20052;-55
2023/10/31 06:41:56;;;;;;;7.40;3.03;;;;;;;9.00;100.00;99787.56;5092931;28;20051;-56
2023/10/31 06:44:25;;;;;;;8.65;3.20;;;;;;;8.99;100.00;99783.28;5092939;28;20049;-55
2023/10/31 06:46:54;;;;;;;9.20;3.17;;;;;;;8.99;100.00;99789.38;5092976;28;20052;-56
2023/10/31 06:49:23;;;;;;;8.63;3.60;;;;;;;9.01;100.00;99791.88;5093048;28;20289;-56
2023/10/31 06:51:52;;;;;;;8.52;4.03;;;;;;;9.03;100.00;99795.22;5091490;28;20047;-55
2023/10/31 06:54:20;;;;;;;12.27;5.20;;;;;;;9.02;100.00;99785.69;5092934;28;20119;-53
2023/10/31 06:56:49;;;;;;;10.27;5.88;;;;;;;9.02;100.00;99786.50;5092705;28;20380;-55
2023/10/31 06:59:18;;;;;;;12.20;6.47;;;;;;;9.04;100.00;99789.00;5092760;28;20066;-55
2023/10/31 07:01:47;;;;;;;13.75;7.10;;;;;;;9.08;100.00;99790.44;5092531;28;20056;-55
2023/10/31 07:04:16;;;;;;;12.10;6.80;;;;;;;9.11;100.00;99785.00;5092694;28;20888;-54
2023/10/31 07:06:44;;;;;;;15.80;7.32;;;;;;;9.11;100.00;99785.00;5092641;28;20048;-46
2023/10/31 07:09:13;;;;;;;15.32;7.55;;;;;;;9.12;100.00;99787.50;5092243;28;20056;-47
2023/10/31 07:11:41;;;;;;;13.48;7.82;;;;;;;9.16;100.00;99803.81;5092481;28;20048;-49
2023/10/31 07:14:09;;;;;;;17.67;8.60;;;;;;;9.22;100.00;99797.28;5092627;28;20131;-46
2023/10/31 07:16:39;;;;;;;14.63;8.52;;;;;;;9.21;100.00;99800.84;5092078;28;20040;-48
2023/10/31 07:19:08;;;;;;;14.63;9.15;;;;;;;9.21;100.00;99801.69;5092340;28;20394;-45
2023/10/31 07:21:36;;;;;;;17.60;9.35;;;;;;;9.24;100.00;99801.47;5092316;28;20052;-54
2023/10/31 07:24:05;;;;;;;16.65;8.95;;;;;;;9.24;100.00;99806.72;5092269;28;20040;-55
2023/10/31 07:26:33;;;;;;;16.02;9.68;;;;;;;9.33;100.00;99809.59;5092156;28;20109;-56
2023/10/31 07:29:01;;;;;;;15.43;9.77;;;;;;;9.41;100.00;99809.84;5092113;28;20521;-48
2023/10/31 07:31:29;;;;;;;16.10;10.55;;;;;;;9.55;100.00;99811.41;5092123;28;20081;-47
2023/10/31 07:33:59;;;;;;;19.27;10.45;;;;;;;9.69;100.00;99813.78;5092185;28;20047;-47
2023/10/31 07:36:27;;;;;;;20.48;12.27;;;;;;;9.69;100.00;99815.56;5091944;28;20043;-46
2023/10/31 07:38:55;;;;;;;19.08;12.43;;;;;;;9.76;100.00;99817.63;5090720;28;20052;-46
2023/10/31 07:41:23;;;;;;;19.70;13.48;;;;;;;9.92;100.00;99819.84;5091727;28;20059;-48
2023/10/31 07:43:53;;;;;;;21.83;13.70;;;;;;;10.06;100.00;99821.41;5091528;28;20418;-47
2023/10/31 07:46:23;;;;;;;19.23;13.40;;;;;;;10.32;100.00;99821.09;5091695;28;20052;-47
2023/10/31 07:48:51;;;;;;;20.63;13.98;;;;;;;10.42;100.00;99821.25;5091855;28;20075;-49
2023/10/31 07:51:20;;;;;;;20.73;13.13;;;;;;;10.59;100.00;99825.97;5091989;28;20050;-46
2023/10/31 07:53:48;;;;;;;22.17;14.13;;;;;;;10.71;100.00;99826.75;5091860;28;20143;-48
2023/10/31 07:56:17;;;;;;;18.13;13.05;;;;;;;10.75;100.00;99833.44;5091911;28;20071;-46
2023/10/31 07:58:45;;;;;;;21.23;14.45;;;;;;;10.85;100.00;99824.78;5091819;28;20052;-48
2023/10/31 08:01:13;;;;;;;18.50;13.07;;;;;;;10.80;100.00;99831.25;5092363;28;20048;-46
2023/10/31 08:03:41;;;;;;;20.17;13.55;;;;;;;10.91;100.00;99838.28;5091838;28;20076;-47
2023/10/31 08:06:11;;;;;;;19.00;13.57;;;;;;;10.72;100.00;99838.94;5091664;28;20036;-49
2023/10/31 08:08:41;;;;;;;18.17;13.55;;;;;;;10.73;100.00;99842.41;5091584;28;20101;-50
2023/10/31 08:11:10;;;;;;;19.88;14.35;;;;;;;10.70;100.00;99845.28;5091765;28;20427;-49
2023/10/31 08:13:38;;;;;;;18.55;13.60;;;;;;;10.58;100.00;99850.59;5091698;28;20072;-48
2023/10/31 08:16:08;;;;;;;17.48;13.25;;;;;;;10.61;100.00;99854.78;5091588;28;20520;-48
2023/10/31 08:18:36;;;;;;;18.30;13.98;;;;;;;10.67;100.00;99850.81;5091646;28;20040;-48
2023/10/31 08:21:05;;;;;;;18.10;13.20;;;;;;;10.73;100.00;99848.53;5093519;28;20517;-50
2023/10/31 08:23:35;;;;;;;19.35;14.18;;;;;;;10.93;100.00;99848.66;5095812;28;20048;-49
2023/10/31 08:26:05;;;;;;;16.67;12.25;;;;;;;11.05;100.00;99849.47;5095609;28;20044;-49
2023/10/31 08:28:33;;;;;;;17.67;13.05;;;;;;;11.07;100.00;99852.78;5095486;28;20052;-49
2023/10/31 08:31:03;;;;;;;19.33;13.38;;;;;;;11.26;100.00;99860.84;5095481;28;20048;-45
2023/10/31 08:33:32;;;;;;;18.67;12.57;;;;;;;11.43;100.00;99861.22;5095250;28;20511;-46
2023/10/31 08:36:00;;;;;;;17.80;12.75;;;;;;;11.60;100.00;99863.25;5095042;28;20494;-46
2023/10/31 08:38:30;;;;;;;15.45;12.15;;;;;;;11.71;100.00;99858.84;5095611;28;20495;-45
2023/10/31 08:41:03;;;;;;;15.05;11.43;;;;;;;11.86;100.00;99867.25;5093965;28;20055;-55
2023/10/31 08:43:33;;;;;;;17.05;10.98;;;;;;;11.90;100.00;99869.50;5094136;28;20055;-55
2023/10/31 08:46:01;;;;;;;15.20;10.68;;;;;;;11.84;100.00;99870.00;5095146;28;20051;-54
2023/10/31 08:48:29;;;;;;;15.15;10.45;;;;;;;11.73;100.00;99872.75;5095124;28;20109;-55
2023/10/31 08:50:57;;;;;;;15.73;9.38;;;;;;;11.67;100.00;99880.19;5095244;28;20519;-56
2023/10/31 08:53:25;;;;;;;14.68;9.77;;;;;;;11.66;100.00;99877.69;5095093;28;20066;-55
2023/10/31 08:55:54;;;;;;;12.98;9.80;;;;;;;11.71;100.00;99879.91;5095051;28;20499;-55
2023/10/31 08:58:22;;;;;;;13.43;9.27;;;;;;;11.79;100.00;99880.97;5095616;28;20044;-55
2023/10/31 09:00:51;;;;;;;13.00;8.15;;;;;;;11.80;100.00;99884.41;5095153;28;20494;-55
2023/10/31 09:03:22;;;;;;;14.07;9.27;;;;;;;11.74;100.00;99891.03;5091896;28;20394;-54
2023/10/31 09:05:50;;;;;;;13.40;8.73;;;;;;;11.76;100.00;99891.72;5093256;28;20047;-55
2023/10/31 09:08:18;;;;;;;13.32;8.65;;;;;;;11.74;100.00;99900.72;5095020;28;20063;-55
2023/10/31 09:10:47;;;;;;;20.30;8.63;;;;;;;11.73;100.00;99901.72;5092507;28;20067;-54
2023/10/31 09:13:18;;;;;;;14.02;8.45;;;;;;;11.86;100.00;99904.94;5090413;28;20044;-56
2023/10/31 09:15:47;;;;;;;13.75;8.05;;;;;;;12.16;100.00;99908.56;5094549;28;20048;-46
2023/10/31 09:18:19;;;;;;;13.68;8.25;;;;;;;12.18;100.00;99914.56;5094657;28;20101;-46
2023/10/31 09:20:47;;;;;;;10.57;7.53;;;;;;;12.11;100.00;99919.53;5093244;28;20063;-55
2023/10/31 09:23:17;;;;;;;13.70;7.80;;;;;;;12.16;100.00;99919.97;5091444;28;20051;-45
2023/10/31 09:25:45;;;;;;;15.70;7.82;;;;;;;12.35;100.00;99918.34;5090416;28;20477;-47
2023/10/31 09:28:13;;;;;;;14.43;7.80;;;;;;;12.46;100.00;99922.69;5091549;28;20047;-46
2023/10/31 09:30:41;;;;;;;13.80;7.80;;;;;;;12.62;100.00;99930.91;5094039;28;20040;-45
2023/10/31 09:33:13;;;;;;;13.63;7.82;;;;;;;12.92;100.00;99931.81;5093678;28;20559;-46
2023/10/31 09:35:43;;;;;;;12.32;7.85;;;;;;;13.22;100.00;99937.94;5094063;28;20407;-46
2023/10/31 09:38:11;;;;;;;11.57;6.60;;;;;;;13.42;100.00;99944.09;5094193;28;20123;-45
2023/10/31 09:40:39;;;;;;;11.65;6.75;;;;;;;13.40;100.00;99945.19;5094545;28;20052;-54
2023/10/31 09:43:08;;;;;;;11.70;6.47;;;;;;;13.31;100.00;99945.03;5094346;28;20063;-55
2023/10/31 09:45:36;;;;;;;11.93;7.07;;;;;;;13.24;100.00;99954.50;5094179;28;20097;-56
2023/10/31 09:48:05;;;;;;;13.48;7.07;;;;;;;13.55;100.00;99957.00;5094405;28;20089;-55
2023/10/31 09:50:34;;;;;;;12.40;7.43;;;;;;;13.65;100.00;99957.81;5094215;28;20437;-55
2023/10/31 09:53:06;;;;;;;15.93;7.90;;;;;;;13.74;100.00;99963.22;5093742;28;20047;-54
2023/10/31 09:55:35;;;;;;;12.48;7.85;;;;;;;13.81;100.00;99961.69;5090318;28;20513;-55
2023/10/31 09:58:04;;;;;;;11.95;7.63;;;;;;;14.06;100.00;99986.69;5089992;28;20056;-53
2023/10/31 10:00:32;;;;;;;12.80;7.75;;;;;;;14.19;100.00;99976.63;5091427;28;20046;-55
2023/10/31 10:03:00;;;;;;;11.30;7.53;;;;;;;14.26;100.00;99981.31;5093299;28;20083;-55
2023/10/31 10:05:32;;;;;;;11.70;8.45;;;;;;;14.23;100.00;99987.72;5090997;28;20105;-55
2023/10/31 10:08:00;;;;;;;15.38;9.70;;;;;;;14.65;100.00;99995.22;5091389;28;20079;-56
2023/10/31 10:10:31;;;;;;;10.95;8.70;;;;;;;14.58;100.00;99990.66;5093834;28;20048;-55
2023/10/31 10:13:02;;;;;;;13.68;9.30;;;;;;;14.54;100.00;100001.50;5093757;28;20123;-47
2023/10/31 10:15:31;;;;;;;15.32;8.98;;;;;;;14.82;100.00;100006.84;5093667;28;20074;-47
2023/10/31 10:17:59;;;;;;;14.32;9.25;;;;;;;15.00;100.00;100008.72;5093291;28;20040;-53
2023/10/31 10:20:28;;;;;;;15.35;8.85;;;;;;;15.11;100.00;100024.38;5093503;28;20204;-54
2023/10/31 10:23:04;;;;;;;12.70;8.13;;;;;;;14.90;100.00;100015.88;5093693;28;20100;-54
2023/10/31 10:25:34;;;;;;;12.55;8.40;;;;;;;14.79;100.00;100023.03;5091110;28;20093;-55
2023/10/31 10:28:12;;;;;;;10.55;7.75;;;;;;;14.74;100.00;100027.09;5090299;28;20054;-53
2023/10/31 10:30:41;;;;;;;12.05;7.90;;;;;;;15.03;100.00;100021.66;5092873;28;20105;-55
2023/10/31 10:33:09;;;;;;;10.00;7.00;;;;;;;15.25;100.00;100025.69;5090672;28;20124;-53
2023/10/31 10:35:37;;;;;;;11.65;6.95;;;;;;;15.78;100.00;100018.69;5091681;28;20052;-54
2023/10/31 10:38:10;;;;;;;11.65;6.40;;;;;;;16.23;100.00;100022.19;5093409;28;20032;-56
2023/10/31 10:40:42;;;;;;;9.93;5.78;;;;;;;16.31;100.00;100022.22;5093179;28;20072;-56
2023/10/31 10:43:14;;;;;;;11.15;6.10;;;;;;;16.04;100.00;100031.19;5093324;28;20052;-56
2023/10/31 10:45:44;;;;;;;13.13;6.40;;;;;;;15.64;100.00;100024.56;5092371;28;20036;-56
2023/10/31 10:48:16;;;;;;;9.73;5.40;;;;;;;15.35;100.00;100030.91;5093366;28;20457;-54
2023/10/31 10:50:51;;;;;;;12.13;5.78;;;;;;;15.07;100.00;100032.78;5092963;28;20050;-47
2023/10/31 10:53:24;;;;;;;13.43;5.60;;;;;;;14.88;100.00;100034.56;5092915;28;20043;-47
2023/10/31 10:56:03;;;;;;;12.43;5.85;;;;;;;14.91;100.00;100034.25;5092745;28;20097;-46
2023/10/31 10:58:37;;;;;;;11.85;5.65;;;;;;;14.95;100.00;100035.63;5092475;28;20032;-47
2023/10/31 11:01:09;;;;;;;11.15;5.05;;;;;;;15.01;100.00;100035.03;5091363;28;20044;-48
2023/10/31 11:03:38;;;;;;;8.10;4.65;;;;;;;14.92;100.00;100035.91;5092368;28;20052;-49
2023/10/31 11:06:07;;;;;;;12.70;5.57;;;;;;;15.09;100.00;100042.22;5092648;28;20044;-50
2023/10/31 11:08:36;;;;;;;8.20;5.20;;;;;;;15.02;100.00;100042.00;5092497;28;20040;-48
2023/10/31 11:11:06;;;;;;;10.15;5.38;;;;;;;15.08;100.00;100042.38;5092473;28;20044;-46
2023/10/31 11:13:36;;;;;;;8.73;5.18;;;;;;;15.38;100.00;100046.50;5092205;28;20086;-47
2023/10/31 11:16:09;;;;;;;12.63;5.50;;;;;;;15.47;100.00;100047.41;5092084;28;20052;-45
2023/10/31 11:18:38;;;;;;;9.77;5.50;;;;;;;15.60;100.00;100042.56;5092272;28;20419;-44
2023/10/31 11:21:09;;;;;;;12.75;5.80;;;;;;;15.42;100.00;100047.03;5092469;28;20048;-56
2023/10/31 11:23:37;;;;;;;10.48;6.07;;;;;;;15.22;100.00;100052.47;5092515;28;20048;-56
2023/10/31 11:26:08;;;;;;;13.80;8.02;;;;;;;15.00;100.00;100043.94;5091281;28;20044;-56
2023/10/31 11:28:37;;;;;;;13.45;9.48;;;;;;;14.90;100.00;100048.44;5092497;28;20055;-57
2023/10/31 11:31:07;;;;;;;14.98;11.32;;;;;;;14.96;100.00;100047.88;5092441;28;20044;-56
2023/10/31 11:33:41;;;;;;;17.85;12.57;;;;;;;14.83;100.00;100048.25;5091362;28;20146;-55